Nearby METAR Reports

 

EGTE - Exeter Airport, United Kingdom
Distance from station: S 19km
Updated: 17/08/2018 00:50
Few Clouds
Few Clouds
 Wind from varies
Wind: varies 2 km/h
Temperature: 12°C
Dew Point: 11°C
Humidity: 94%
Barometer: 1018 hPa
Clouds: Few Clouds
Visibility: 10 km
Cloud details: Few Clouds 1219 m
2018/08/16 23:50 EGTE 162350Z VRB01KT 9999 FEW040 12/11 Q1018
EGDY - Yeovilton (navy), United Kingdom
Distance from station: ENE 55km
Updated: 17/08/2018 00:50
Clear
Clear
 Wind from WSW
Wind: WSW 9 km/h
Temperature: 13°C
Dew Point: 11°C
Humidity: 88%
Barometer: 1018 hPa
Clouds: Clear
Visibility: 10 km
2018/08/16 23:50 EGDY 162350Z AUTO 25005KT 9999 NCD 13/11 Q1018
 
EGFF - Cardiff-Wales Ar, United Kingdom
Distance from station: N 56km
Updated: 17/08/2018 00:50
Mostly cloudy
Mostly cloudy
 Wind from NW
Wind: NW 9 km/h
Temperature: 14°C
Dew Point: 12°C
Humidity: 88%
Barometer: 1018 hPa
Clouds: Mostly cloudy
Visibility: 10 km
Cloud details: Few Clouds 762 m
Partly cloudy 1219 m
Mostly cloudy 1463 m
2018/08/16 23:50 EGFF 162350Z AUTO 32005KT 9999 FEW025 SCT040 BKN048 14/12 Q1018
EGDX - St Athan Raf, United Kingdom
Distance from station: N 58km
Updated: 17/08/2018 00:50
Mostly cloudy
Mostly cloudy
 Wind from NW
Wind: NW 11 km/h
Temperature: 15°C
Dew Point: 12°C
Humidity: 82%
Barometer: 1017 hPa
Clouds: Mostly cloudy
Visibility: 10 km
Cloud details: Partly cloudy 610 m
Mostly cloudy 1524 m
2018/08/16 23:50 EGDX 162350Z AUTO 31006KT 9999 SCT020/// BKN050/// 15/12 Q1017
 
EGGD - Bristol/Lulsgate, United Kingdom
Distance from station: NE 71km
Updated: 17/08/2018 00:50
Clear
Clear
 Wind from W
Wind: W 11 km/h
Temperature: 13°C
Dew Point: 12°C
Humidity: 94%
Barometer: 1018 hPa
Clouds: Clear
Visibility: 10 km
2018/08/16 23:50 EGGD 162350Z AUTO 26006KT 9999 NCD 13/12 Q1018